Terminal Aerodrome Forecast
Issued by NWS

Home | Current Version | Previous Version | Text Only | Print | Product List | Glossary On
Versions: 1 2 3 4 5 6 7 8 9 10 11 12 13 14
000
FTUS42 KTAE 281100
TAFABY
TAF
KABY 281130Z 2812/2912 25012KT P6SM SCT030
     FM281800 26015KT P6SM VCTS BKN050CB
     FM282100 VRB15G30KT 3SM +TSRA BKN005 OVC030CB
     FM290000 27005KT P6SM SCT040 BKN100=

USA.gov is the U.S. government's official web portal to all federal, state and local government web resources and services.